createdAt,value
2022-08-11T00:00:01.512Z,13.55
2022-08-11T00:02:46.431Z,13.55
2022-08-11T00:05:20.117Z,13.53
2022-08-11T00:07:51.513Z,13.48
2022-08-11T00:10:22.283Z,13.43
2022-08-11T00:12:59.140Z,13.38
2022-08-11T00:15:38.589Z,13.35
2022-08-11T00:18:07.139Z,13.31
2022-08-11T00:20:39.822Z,13.29
2022-08-11T00:23:11.320Z,13.25
2022-08-11T00:25:42.173Z,13.17
2022-08-11T00:28:27.347Z,13.13
2022-08-11T00:30:58.437Z,13.11
2022-08-11T00:33:44.446Z,13.08
2022-08-11T00:36:18.900Z,13.06
2022-08-11T00:38:52.042Z,13.02
2022-08-11T00:41:39.279Z,12.99
2022-08-11T00:44:34.689Z,12.97
2022-08-11T00:47:17.668Z,12.92
2022-08-11T00:50:10.324Z,12.88
2022-08-11T00:53:13.223Z,12.86
2022-08-11T00:56:25.229Z,12.81
2022-08-11T00:59:04.978Z,12.78
2022-08-11T01:01:52.781Z,12.75
2022-08-11T01:05:04.192Z,12.75
2022-08-11T01:08:00.486Z,12.71
2022-08-11T01:10:53.677Z,12.67
2022-08-11T01:13:41.353Z,12.64
2022-08-11T01:16:11.494Z,12.64
2022-08-11T01:18:56.744Z,12.63
2022-08-11T01:21:46.049Z,12.60
2022-08-11T01:24:41.147Z,12.56
2022-08-11T01:27:47.818Z,12.54
2022-08-11T01:30:30.660Z,12.48
2022-08-11T01:33:04.178Z,12.45
2022-08-11T01:35:50.320Z,12.39
2022-08-11T01:38:45.776Z,12.35
2022-08-11T01:41:51.768Z,12.32
2022-08-11T01:44:51.616Z,12.28
2022-08-11T01:47:53.286Z,12.24
2022-08-11T01:50:32.969Z,12.24
2022-08-11T01:53:25.469Z,12.22
2022-08-11T01:56:14.420Z,12.21
2022-08-11T01:59:00.729Z,12.18
2022-08-11T02:01:50.486Z,12.13
2022-08-11T02:04:50.244Z,12.10
2022-08-11T02:07:27.225Z,12.08
2022-08-11T02:10:40.715Z,12.08
2022-08-11T02:13:15.557Z,12.04
2022-08-11T02:15:50.510Z,12.02
2022-08-11T02:18:48.580Z,12.00
2022-08-11T02:21:43.023Z,11.96
2022-08-11T02:24:35.642Z,11.93
2022-08-11T02:27:20.750Z,11.92
2022-08-11T02:30:11.031Z,11.89
2022-08-11T02:33:27.391Z,11.84
2022-08-11T02:36:15.659Z,11.80
2022-08-11T02:39:07.218Z,11.80
2022-08-11T02:42:32.649Z,11.80
2022-08-11T02:45:12.682Z,11.77
2022-08-11T02:48:32.276Z,11.78
2022-08-11T02:51:30.422Z,11.75
2022-08-11T02:54:07.005Z,11.75
2022-08-11T02:56:44.809Z,11.75
2022-08-11T02:59:39.082Z,11.74
2022-08-11T03:02:31.915Z,11.72
2022-08-11T03:05:05.338Z,11.69
2022-08-11T03:08:06.977Z,11.68
2022-08-11T03:10:44.040Z,11.63
2022-08-11T03:13:50.920Z,11.61
2022-08-11T03:16:48.529Z,11.55
2022-08-11T03:19:36.111Z,11.53
2022-08-11T03:22:14.461Z,11.50
2022-08-11T03:24:54.063Z,11.48
2022-08-11T03:27:40.568Z,11.48
2022-08-11T03:30:32.290Z,11.47
2022-08-11T03:33:43.880Z,11.47
2022-08-11T03:37:15.693Z,11.46
2022-08-11T03:39:56.395Z,11.47
2022-08-11T03:42:46.639Z,11.46
2022-08-11T03:45:32.818Z,11.49
2022-08-11T03:48:29.777Z,11.49
2022-08-11T03:51:14.811Z,11.49
2022-08-11T03:54:07.371Z,11.50
2022-08-11T03:57:04.615Z,11.51
2022-08-11T03:59:41.626Z,11.54
2022-08-11T04:02:48.094Z,11.57
2022-08-11T04:05:46.439Z,11.60
2022-08-11T04:08:34.400Z,11.64
2022-08-11T04:11:32.041Z,11.70
2022-08-11T04:14:52.278Z,11.74
2022-08-11T04:17:27.305Z,11.79
2022-08-11T04:20:10.390Z,11.85
2022-08-11T04:23:03.854Z,11.92
2022-08-11T04:25:58.213Z,12.00
2022-08-11T04:28:51.398Z,12.07
2022-08-11T04:31:51.089Z,12.18
2022-08-11T04:34:47.340Z,12.31
2022-08-11T04:37:34.998Z,12.42
2022-08-11T04:40:45.945Z,12.54
2022-08-11T04:44:02.129Z,12.66
2022-08-11T04:46:51.249Z,12.79
2022-08-11T04:49:42.014Z,12.91
2022-08-11T04:52:47.267Z,13.03
2022-08-11T04:56:11.144Z,13.14
2022-08-11T04:59:43.839Z,13.27
2022-08-11T05:02:26.565Z,13.40
2022-08-11T05:05:31.294Z,13.52
2022-08-11T05:08:26.373Z,13.64
2022-08-11T05:11:18.911Z,13.75
2022-08-11T05:14:09.708Z,13.84
2022-08-11T05:17:10.492Z,13.94
2022-08-11T05:19:56.987Z,14.03
2022-08-11T05:22:48.686Z,14.13
2022-08-11T05:26:45.212Z,14.21
2022-08-11T05:29:21.290Z,14.32
2022-08-11T05:32:16.890Z,14.43
2022-08-11T05:34:55.305Z,14.56
2022-08-11T05:37:34.029Z,14.68
2022-08-11T05:40:23.403Z,14.81
2022-08-11T05:43:17.077Z,14.93
2022-08-11T05:46:06.262Z,15.07
2022-08-11T05:48:55.387Z,15.20
2022-08-11T05:51:55.360Z,15.35
2022-08-11T05:54:46.724Z,15.49
2022-08-11T05:57:44.089Z,15.63
2022-08-11T06:00:12.625Z,15.77
2022-08-11T06:02:52.141Z,15.90
2022-08-11T06:05:20.195Z,16.03
2022-08-11T06:07:50.226Z,16.16
2022-08-11T06:10:33.396Z,16.31
2022-08-11T06:13:02.613Z,16.46
2022-08-11T06:15:32.561Z,16.62
2022-08-11T06:18:02.996Z,16.75
2022-08-11T06:20:37.783Z,16.88
2022-08-11T06:23:07.998Z,17.02
2022-08-11T06:25:37.504Z,17.15
2022-08-11T06:28:07.531Z,17.27
2022-08-11T06:30:42.173Z,17.38
2022-08-11T06:33:13.805Z,17.49
2022-08-11T06:35:57.842Z,17.60
2022-08-11T06:38:45.716Z,17.73
2022-08-11T06:41:32.998Z,17.88
2022-08-11T06:44:13.422Z,18.01
2022-08-11T06:46:43.678Z,18.13
2022-08-11T06:49:32.947Z,18.23
2022-08-11T06:52:04.650Z,18.36
2022-08-11T06:54:41.579Z,18.47
2022-08-11T06:57:32.510Z,18.59
2022-08-11T07:00:20.726Z,18.71
2022-08-11T07:03:11.666Z,18.81
2022-08-11T07:06:15.850Z,18.93
2022-08-11T07:09:43.826Z,19.07
2022-08-11T07:12:49.513Z,19.21
2022-08-11T07:16:11.349Z,19.36
2022-08-11T07:18:46.829Z,19.51
2022-08-11T07:22:01.413Z,19.64
2022-08-11T07:24:59.460Z,19.77
2022-08-11T07:28:02.473Z,19.92
2022-08-11T07:30:33.109Z,20.05
2022-08-11T07:33:03.745Z,20.13
2022-08-11T07:35:35.490Z,20.23
2022-08-11T07:38:07.841Z,20.34
2022-08-11T07:40:37.160Z,20.45
2022-08-11T07:43:07.219Z,20.53
2022-08-11T07:45:54.605Z,20.62
2022-08-11T07:48:41.306Z,20.71
2022-08-11T07:51:28.018Z,20.82
2022-08-11T07:53:58.392Z,20.93
2022-08-11T07:56:54.438Z,21.06
2022-08-11T08:00:03.513Z,21.22
2022-08-11T08:02:50.209Z,21.35
2022-08-11T08:05:37.844Z,21.43
2022-08-11T08:08:27.617Z,21.51
2022-08-11T08:11:15.753Z,21.60
2022-08-11T08:14:02.680Z,21.66
2022-08-11T08:16:49.990Z,21.71
2022-08-11T08:19:20.923Z,21.74
2022-08-11T08:21:49.815Z,21.76
2022-08-11T08:24:20.341Z,21.81
2022-08-11T08:26:58.683Z,21.82
2022-08-11T08:29:53.147Z,21.89
2022-08-11T08:32:21.920Z,21.97
2022-08-11T08:34:55.746Z,22.03
2022-08-11T08:37:46.933Z,22.11
2022-08-11T08:40:15.595Z,22.18
2022-08-11T08:42:56.019Z,22.25
2022-08-11T08:45:25.663Z,22.35
2022-08-11T08:48:23.876Z,22.43
2022-08-11T08:51:15.396Z,22.57
2022-08-11T08:53:53.761Z,22.70
2022-08-11T08:56:29.161Z,22.77
2022-08-11T08:59:00.541Z,22.82
2022-08-11T09:01:33.756Z,22.83
2022-08-11T09:04:10.776Z,22.85
2022-08-11T09:06:40.996Z,22.81
2022-08-11T09:09:10.312Z,22.76
2022-08-11T09:11:53.464Z,22.78
2022-08-11T09:14:57.733Z,22.85
2022-08-11T09:17:27.748Z,22.96
2022-08-11T09:20:01.618Z,23.03
2022-08-11T09:23:19.265Z,23.09
2022-08-11T09:25:59.552Z,23.11
2022-08-11T09:28:30.808Z,23.02
2022-08-11T09:31:01.792Z,23.01
2022-08-11T09:33:31.800Z,23.06
2022-08-11T09:36:20.917Z,23.08
2022-08-11T09:39:08.058Z,23.21
2022-08-11T09:42:00.853Z,23.40
2022-08-11T09:44:45.356Z,23.46
2022-08-11T09:47:17.702Z,23.30
2022-08-11T09:49:46.882Z,23.23
2022-08-11T09:52:18.763Z,23.20
2022-08-11T09:54:49.059Z,23.32
2022-08-11T09:57:41.019Z,23.42
2022-08-11T10:00:13.084Z,23.54
2022-08-11T10:02:47.601Z,23.67
2022-08-11T10:05:38.127Z,23.80
2022-08-11T10:08:09.548Z,23.91
2022-08-11T10:10:39.356Z,24.00
2022-08-11T10:14:32.131Z,24.01
2022-08-11T10:16:14.860Z,23.83
2022-08-11T10:18:52.301Z,23.75
2022-08-11T10:21:29.092Z,23.83
2022-08-11T10:24:18.997Z,24.00
2022-08-11T10:26:55.543Z,24.09
2022-08-11T10:29:52.281Z,24.21
2022-08-11T10:32:59.005Z,24.34
2022-08-11T10:35:29.904Z,24.44
2022-08-11T10:38:08.719Z,24.48
2022-08-11T10:40:40.045Z,24.54
2022-08-11T10:43:56.786Z,24.59
2022-08-11T10:46:30.415Z,24.67
2022-08-11T10:49:00.589Z,24.80
2022-08-11T10:51:51.910Z,24.76
2022-08-11T10:54:42.022Z,24.53
2022-08-11T10:57:29.236Z,24.38
2022-08-11T10:59:58.299Z,24.31
2022-08-11T11:02:28.205Z,24.40
2022-08-11T11:05:10.116Z,24.51
2022-08-11T11:07:41.491Z,24.68
2022-08-11T11:10:12.608Z,24.81
2022-08-11T11:13:04.534Z,24.89
2022-08-11T11:15:54.659Z,25.03
2022-08-11T11:18:28.868Z,25.11
2022-08-11T11:21:20.696Z,25.20
2022-08-11T11:23:55.181Z,25.11
2022-08-11T11:26:41.281Z,25.05
2022-08-11T11:29:46.825Z,25.09
2022-08-11T11:32:36.094Z,25.20
2022-08-11T11:35:27.001Z,25.33
2022-08-11T11:38:04.343Z,25.18
2022-08-11T11:40:33.959Z,25.01
2022-08-11T11:43:02.678Z,24.92
2022-08-11T11:45:30.836Z,24.84
2022-08-11T11:48:00.789Z,24.76
2022-08-11T11:50:35.308Z,24.77
2022-08-11T11:53:07.274Z,24.77
2022-08-11T11:55:36.412Z,24.72
2022-08-11T11:58:23.871Z,24.65
2022-08-11T12:01:12.577Z,24.56
2022-08-11T12:03:41.090Z,24.44
2022-08-11T12:06:12.238Z,24.38
2022-08-11T12:08:41.441Z,24.33
2022-08-11T12:11:32.080Z,24.29
2022-08-11T12:14:04.717Z,24.22
2022-08-11T12:16:44.768Z,24.13
2022-08-11T12:19:18.577Z,24.05
2022-08-11T12:22:06.703Z,23.97
2022-08-11T12:24:55.984Z,23.92
2022-08-11T12:27:26.517Z,24.05
2022-08-11T12:29:57.355Z,24.24
2022-08-11T12:32:29.355Z,24.47
2022-08-11T12:34:58.330Z,24.70
2022-08-11T12:37:33.234Z,24.85
2022-08-11T12:40:43.427Z,25.02
2022-08-11T12:43:39.903Z,25.05
2022-08-11T12:46:12.084Z,25.01
2022-08-11T12:49:07.723Z,24.97
2022-08-11T12:52:12.522Z,24.92
2022-08-11T12:54:57.334Z,24.98
2022-08-11T12:57:55.093Z,25.09
2022-08-11T13:00:43.803Z,25.18
2022-08-11T13:03:32.389Z,25.32
2022-08-11T13:06:04.037Z,25.47
2022-08-11T13:08:38.349Z,25.60
2022-08-11T13:11:56.720Z,25.68
2022-08-11T13:14:16.967Z,25.76
2022-08-11T13:17:05.125Z,25.73
2022-08-11T13:19:34.647Z,25.50
2022-08-11T13:22:07.393Z,25.22
2022-08-11T13:24:36.596Z,24.93
2022-08-11T13:27:04.975Z,24.68
2022-08-11T13:29:33.527Z,24.45
2022-08-11T13:32:01.744Z,24.25
2022-08-11T13:34:34.627Z,24.08
2022-08-11T13:37:05.585Z,23.98
2022-08-11T13:39:36.415Z,23.91
2022-08-11T13:42:05.942Z,23.88
2022-08-11T13:44:36.713Z,23.88
2022-08-11T13:47:08.088Z,23.91
2022-08-11T13:49:39.921Z,23.96
2022-08-11T13:52:15.592Z,24.04
2022-08-11T13:54:47.029Z,24.15
2022-08-11T13:58:06.562Z,24.12
2022-08-11T14:00:23.635Z,23.92
2022-08-11T14:02:57.184Z,23.54
2022-08-11T14:05:38.080Z,23.22
2022-08-11T14:08:38.493Z,22.93
2022-08-11T14:12:22.225Z,22.71
2022-08-11T14:14:14.167Z,22.49
2022-08-11T14:16:44.317Z,22.36
2022-08-11T14:19:14.758Z,22.20
2022-08-11T14:22:07.429Z,22.05
2022-08-11T14:24:41.544Z,21.86
2022-08-11T14:28:15.391Z,21.67
2022-08-11T14:30:02.733Z,21.43
2022-08-11T14:32:30.966Z,21.22
2022-08-11T14:35:00.108Z,21.05
2022-08-11T14:37:29.287Z,20.95
2022-08-11T14:40:03.171Z,20.86
2022-08-11T14:42:51.173Z,20.79
2022-08-11T14:45:54.638Z,20.70
2022-08-11T14:48:27.255Z,20.81
2022-08-11T14:50:56.272Z,21.09
2022-08-11T14:53:24.612Z,21.37
2022-08-11T14:56:12.595Z,21.51
2022-08-11T14:58:42.229Z,21.51
2022-08-11T15:01:30.715Z,21.48
2022-08-11T15:04:04.337Z,21.47
2022-08-11T15:06:48.658Z,21.41
2022-08-11T15:09:17.164Z,21.38
2022-08-11T15:12:05.473Z,21.32
2022-08-11T15:15:30.051Z,21.20
2022-08-11T15:18:00.720Z,21.15
2022-08-11T15:20:53.673Z,21.15
2022-08-11T15:23:41.075Z,21.15
2022-08-11T15:26:15.783Z,21.14
2022-08-11T15:29:07.950Z,21.11
2022-08-11T15:31:57.704Z,21.12
2022-08-11T15:34:47.443Z,21.13
2022-08-11T15:37:27.094Z,21.15
2022-08-11T15:40:43.471Z,21.23
2022-08-11T15:43:35.079Z,21.34
2022-08-11T15:46:11.284Z,21.45
2022-08-11T15:48:48.692Z,21.56
2022-08-11T15:51:29.667Z,21.67
2022-08-11T15:54:00.193Z,21.74
2022-08-11T15:56:31.163Z,21.79
2022-08-11T15:59:41.736Z,21.84
2022-08-11T16:02:29.702Z,21.89
2022-08-11T16:04:59.897Z,21.85
2022-08-11T16:07:33.593Z,21.84
2022-08-11T16:10:10.905Z,21.77
2022-08-11T16:13:06.373Z,21.77
2022-08-11T16:16:04.129Z,21.82
2022-08-11T16:18:42.245Z,21.71
2022-08-11T16:21:26.205Z,21.56
2022-08-11T16:27:02.077Z,21.47
2022-08-11T16:27:13.565Z,21.39
2022-08-11T16:29:47.908Z,21.32
2022-08-11T16:32:21.864Z,21.32
2022-08-11T16:35:13.771Z,21.34
2022-08-11T16:38:00.884Z,21.37
2022-08-11T16:40:29.983Z,21.38
2022-08-11T16:43:17.709Z,21.40
2022-08-11T16:46:06.157Z,21.48
2022-08-11T16:48:38.554Z,21.52
2022-08-11T16:51:10.558Z,21.50
2022-08-11T16:53:59.739Z,21.50
2022-08-11T16:56:37.461Z,21.52
2022-08-11T16:59:22.827Z,21.54
2022-08-11T17:01:53.761Z,21.54
2022-08-11T17:04:55.516Z,21.47
2022-08-11T17:07:46.017Z,21.45
2022-08-11T17:10:52.476Z,21.62
2022-08-11T17:13:29.380Z,21.51
2022-08-11T17:16:07.984Z,21.42
2022-08-11T17:18:45.569Z,21.40
2022-08-11T17:22:05.808Z,21.37
2022-08-11T17:24:37.295Z,21.27
2022-08-11T17:27:08.275Z,21.21
2022-08-11T17:29:53.526Z,21.14
2022-08-11T17:33:00.592Z,21.05
2022-08-11T17:35:34.481Z,20.91
2022-08-11T17:38:08.129Z,20.82
2022-08-11T17:40:39.270Z,20.74
2022-08-11T17:43:28.577Z,20.66
2022-08-11T17:46:16.374Z,20.54
2022-08-11T17:48:48.332Z,20.41
2022-08-11T17:51:38.666Z,20.30
2022-08-11T17:54:27.971Z,20.20
2022-08-11T17:57:21.048Z,20.12
2022-08-11T17:59:56.590Z,20.06
2022-08-11T18:02:49.162Z,20.01
2022-08-11T18:05:20.307Z,19.85
2022-08-11T18:08:10.374Z,19.76
2022-08-11T18:10:58.921Z,19.63
2022-08-11T18:13:49.825Z,19.50
2022-08-11T18:16:38.068Z,19.39
2022-08-11T18:19:26.704Z,19.26
2022-08-11T18:22:20.393Z,19.11
2022-08-11T18:25:12.423Z,18.99
2022-08-11T18:28:03.020Z,18.87
2022-08-11T18:31:03.893Z,18.76
2022-08-11T18:34:07.646Z,18.67
2022-08-11T18:36:59.712Z,18.54
2022-08-11T18:40:04.340Z,18.45
2022-08-11T18:42:51.973Z,18.31
2022-08-11T18:45:45.208Z,18.23
2022-08-11T18:48:37.293Z,18.15
2022-08-11T18:51:31.520Z,18.06
2022-08-11T18:54:27.592Z,18.00
2022-08-11T18:57:17.032Z,17.97
2022-08-11T19:00:05.385Z,17.95
2022-08-11T19:02:56.180Z,17.91
2022-08-11T19:06:35.579Z,17.86
2022-08-11T19:09:00.110Z,17.81
2022-08-11T19:11:49.853Z,17.76
2022-08-11T19:14:38.318Z,17.72
2022-08-11T19:17:44.854Z,17.72
2022-08-11T19:20:36.628Z,17.74
2022-08-11T19:23:25.128Z,17.72
2022-08-11T19:26:12.183Z,17.72
2022-08-11T19:29:01.542Z,17.74
2022-08-11T19:31:48.691Z,17.76
2022-08-11T19:34:37.649Z,17.78
2022-08-11T19:37:26.375Z,17.78
2022-08-11T19:40:16.759Z,17.78
2022-08-11T19:43:18.629Z,17.75
2022-08-11T19:46:16.904Z,17.72
2022-08-11T19:49:08.194Z,17.68
2022-08-11T19:51:56.001Z,17.67
2022-08-11T19:54:46.264Z,17.64
2022-08-11T19:57:39.300Z,17.57
2022-08-11T20:00:45.078Z,17.53
2022-08-11T20:03:32.278Z,17.50
2022-08-11T20:06:21.591Z,17.47
2022-08-11T20:09:09.640Z,17.49
2022-08-11T20:12:00.313Z,17.50
2022-08-11T20:14:51.115Z,17.45
2022-08-11T20:17:39.974Z,17.44
2022-08-11T20:20:27.517Z,17.42
2022-08-11T20:23:16.583Z,17.43
2022-08-11T20:26:27.555Z,17.38
2022-08-11T20:29:13.318Z,17.35
2022-08-11T20:32:01.462Z,17.33
2022-08-11T20:34:55.681Z,17.29
2022-08-11T20:37:48.872Z,17.23
2022-08-11T20:40:41.539Z,17.16
2022-08-11T20:44:06.467Z,17.10
2022-08-11T20:46:42.002Z,17.00
2022-08-11T20:49:40.611Z,16.94
2022-08-11T20:52:32.411Z,16.87
2022-08-11T20:55:19.941Z,16.81
2022-08-11T20:58:17.668Z,16.75
2022-08-11T21:01:08.218Z,16.69
2022-08-11T21:04:06.822Z,16.62
2022-08-11T21:06:55.335Z,16.55
2022-08-11T21:10:01.175Z,16.50
2022-08-11T21:12:55.537Z,16.41
2022-08-11T21:15:47.229Z,16.36
2022-08-11T21:18:51.726Z,16.31
2022-08-11T21:21:44.636Z,16.26
2022-08-11T21:24:36.711Z,16.20
2022-08-11T21:27:27.619Z,16.16
2022-08-11T21:30:16.782Z,16.13
2022-08-11T21:33:04.295Z,16.08
2022-08-11T21:35:52.081Z,16.03
2022-08-11T21:38:39.507Z,16.03
2022-08-11T21:41:26.531Z,16.01
2022-08-11T21:44:14.823Z,15.98
2022-08-11T21:47:02.352Z,15.95
2022-08-11T21:49:50.696Z,15.92
2022-08-11T21:52:37.752Z,15.92
2022-08-11T21:55:25.342Z,15.93
2022-08-11T21:58:14.231Z,15.94
2022-08-11T22:01:02.546Z,15.96
2022-08-11T22:03:50.542Z,15.99
2022-08-11T22:06:38.638Z,16.03
2022-08-11T22:09:26.251Z,16.07
2022-08-11T22:12:34.352Z,16.10
2022-08-11T22:15:21.574Z,16.11
2022-08-11T22:18:08.178Z,16.15
2022-08-11T22:20:56.528Z,16.13
2022-08-11T22:23:44.460Z,16.14
2022-08-11T22:26:33.831Z,16.18
2022-08-11T22:29:20.475Z,16.21
2022-08-11T22:32:30.011Z,16.26
2022-08-11T22:35:20.067Z,16.31
2022-08-11T22:38:07.695Z,16.34
2022-08-11T22:40:55.667Z,16.37
2022-08-11T22:43:42.475Z,16.41
2022-08-11T22:46:32.423Z,16.45
2022-08-11T22:49:19.951Z,16.48
2022-08-11T22:52:09.727Z,16.49
2022-08-11T22:54:57.364Z,16.51
2022-08-11T22:58:00.977Z,16.53
2022-08-11T23:00:48.497Z,16.56
2022-08-11T23:03:38.601Z,16.59
2022-08-11T23:06:26.920Z,16.60
2022-08-11T23:09:15.572Z,16.63
2022-08-11T23:12:06.701Z,16.64
2022-08-11T23:14:56.977Z,16.66
2022-08-11T23:17:44.911Z,16.70
2022-08-11T23:20:42.179Z,16.73
2022-08-11T23:23:42.634Z,16.74
2022-08-11T23:26:30.163Z,16.76
2022-08-11T23:29:17.954Z,16.76
2022-08-11T23:32:06.502Z,16.75
2022-08-11T23:35:37.108Z,16.75
2022-08-11T23:38:03.688Z,16.75
2022-08-11T23:40:50.521Z,16.76
2022-08-11T23:43:41.926Z,16.79
2022-08-11T23:46:29.442Z,16.79
2022-08-11T23:49:20.537Z,16.79
2022-08-11T23:52:08.492Z,16.80
2022-08-11T23:54:55.797Z,16.81
2022-08-11T23:57:48.772Z,16.81
